Terminal Aerodrome Forecast
Issued by NWS

Home | Current Version | Previous Version | Text Only | Print | Product List | Glossary On
Versions: 1 2 3 4 5 6 7 8 9 10 11 12 13 14 15 16 17 18 19 20 21
000
FTUS44 KOHX 242300
TAFCKV
TAF
KCKV 242333Z 2500/2524 25005KT P6SM SKC
     FM250900 18005KT P6SM BKN250
     FM251400 20009G18KT P6SM OVC100
     FM251700 20009G18KT 4SM -RA BR OVC015
     FM252000 21008G18KT 2SM -RA BR OVC007=

USA.gov is the U.S. government's official web portal to all federal, state and local government web resources and services.